Time;durP1;ratioP1;P1;durP2;ratioP2;P2;SDS_P1;SDS_P2;PMS_P1;PMS_P2;Temp;Humidity;BMP_temperature;BMP_pressure;BME280_temperature;BME280_humidity;BME280_pressure;Samples;Min_cycle;Max_cycle;Signal;HPM_P1;HPM_P2
2021/07/17 00:00:39;;;;;;;13.57;12.13;;;21.40;85.70;;;;;;5076459;28;20647;-74
2021/07/17 00:03:07;;;;;;;12.90;11.60;;;21.40;85.70;;;;;;5076729;28;20209;-74
2021/07/17 00:05:34;;;;;;;12.80;11.70;;;21.30;85.60;;;;;;5076615;28;20547;-74
2021/07/17 00:08:01;;;;;;;12.27;10.87;;;21.40;85.70;;;;;;5076355;28;20218;-74
2021/07/17 00:10:39;;;;;;;12.47;11.37;;;21.30;85.70;;;;;;5076384;28;20206;-74
2021/07/17 00:13:07;;;;;;;12.23;11.00;;;21.30;85.80;;;;;;5075895;28;20213;-74
2021/07/17 00:15:35;;;;;;;12.40;10.73;;;21.30;85.80;;;;;;5075649;28;20212;-74
2021/07/17 00:18:03;;;;;;;12.70;11.40;;;21.30;85.80;;;;;;5076075;28;20274;-74
2021/07/17 00:20:31;;;;;;;12.13;10.93;;;21.30;85.90;;;;;;5076303;28;20205;-74
2021/07/17 00:22:58;;;;;;;12.23;11.03;;;21.30;86.00;;;;;;5063389;28;20201;-74
2021/07/17 00:25:25;;;;;;;13.10;12.00;;;21.30;86.00;;;;;;5075687;28;20210;-75
2021/07/17 00:27:54;;;;;;;12.03;11.03;;;21.30;86.00;;;;;;5076134;28;20220;-75
2021/07/17 00:30:21;;;;;;;12.70;11.50;;;21.30;85.90;;;;;;5076163;28;20217;-74
2021/07/17 00:32:48;;;;;;;13.80;12.00;;;21.30;86.00;;;;;;5076051;28;20217;-74
2021/07/17 00:35:33;;;;;;;13.63;12.20;;;21.30;86.00;;;;;;5075973;28;20208;-74
2021/07/17 00:38:00;;;;;;;13.60;12.20;;;21.30;86.00;;;;;;5075991;28;20217;-74
2021/07/17 00:40:27;;;;;;;15.00;13.50;;;21.30;86.10;;;;;;5075834;28;20284;-74
2021/07/17 00:42:54;;;;;;;14.67;13.27;;;21.30;86.00;;;;;;5075375;28;20213;-74
2021/07/17 00:45:22;;;;;;;13.80;12.50;;;21.30;85.90;;;;;;5075554;28;20262;-74
2021/07/17 00:47:50;;;;;;;13.47;12.17;;;21.30;85.80;;;;;;5075575;28;20210;-74
2021/07/17 00:50:19;;;;;;;14.73;13.23;;;21.30;85.80;;;;;;5075645;28;20251;-75
2021/07/17 00:52:46;;;;;;;14.17;12.50;;;21.30;86.40;;;;;;5075761;28;20205;-74
2021/07/17 00:55:14;;;;;;;14.57;13.23;;;21.30;85.70;;;;;;5075316;28;20617;-74
2021/07/17 00:57:45;;;;;;;14.77;13.33;;;21.30;85.60;;;;;;5075508;28;20205;-75
2021/07/17 01:00:14;;;;;;;14.83;13.43;;;21.30;85.50;;;;;;5075426;28;20219;-74
2021/07/17 01:02:51;;;;;;;14.27;11.90;;;21.30;85.40;;;;;;5075733;28;20206;-74
2021/07/17 01:05:19;;;;;;;14.47;12.70;;;21.30;85.30;;;;;;5075454;28;20304;-74
2021/07/17 01:07:46;;;;;;;16.30;13.13;;;21.30;85.10;;;;;;5075548;28;20217;-74
2021/07/17 01:10:16;;;;;;;12.63;11.43;;;21.30;85.10;;;;;;5075285;28;20294;-74
2021/07/17 01:12:44;;;;;;;13.27;11.87;;;21.30;85.00;;;;;;5075266;28;20571;-74
2021/07/17 01:15:11;;;;;;;12.93;11.70;;;21.30;84.90;;;;;;5075009;28;20233;-74
2021/07/17 01:17:39;;;;;;;12.87;11.33;;;21.30;84.70;;;;;;5074760;28;20731;-74
2021/07/17 01:20:12;;;;;;;11.37;10.20;;;21.30;84.70;;;;;;5074613;28;20245;-75
2021/07/17 01:22:40;;;;;;;12.37;11.10;;;21.30;84.40;;;;;;5074865;28;20271;-74
2021/07/17 01:25:12;;;;;;;12.50;11.40;;;21.30;84.30;;;;;;5075022;28;20266;-74
2021/07/17 01:27:41;;;;;;;14.70;11.10;;;21.20;84.20;;;;;;5074783;28;20291;-74
2021/07/17 01:30:15;;;;;;;12.60;11.40;;;21.30;84.30;;;;;;5074880;28;20217;-74
2021/07/17 01:32:42;;;;;;;11.37;10.23;;;21.20;84.40;;;;;;5075088;28;20217;-74
2021/07/17 01:35:10;;;;;;;11.90;10.80;;;21.20;84.40;;;;;;5074782;28;20242;-74
2021/07/17 01:37:37;;;;;;;11.63;10.63;;;21.20;84.60;;;;;;5074689;28;20214;-74
2021/07/17 01:40:11;;;;;;;11.97;10.77;;;21.20;84.60;;;;;;5074751;28;20596;-74
2021/07/17 01:42:39;;;;;;;12.50;11.20;;;21.20;84.80;;;;;;5074656;28;20221;-74
2021/07/17 01:45:07;;;;;;;11.53;10.10;;;21.20;84.90;;;;;;5071584;28;20221;-74
2021/07/17 01:47:36;;;;;;;11.97;10.87;;;21.20;85.00;;;;;;5074376;28;20221;-74
2021/07/17 01:50:05;;;;;;;12.50;10.77;;;21.20;85.00;;;;;;5074273;28;20640;-74
2021/07/17 01:52:32;;;;;;;11.37;10.30;;;21.20;84.90;;;;;;5073896;28;20205;-74
2021/07/17 01:54:59;;;;;;;11.93;10.73;;;21.20;85.00;;;;;;5074015;28;20233;-74
2021/07/17 01:57:26;;;;;;;10.37;9.47;;;21.20;84.90;;;;;;5074339;28;20344;-75
2021/07/17 01:59:52;;;;;;;11.40;10.07;;;21.10;84.80;;;;;;5074595;28;20271;-74
2021/07/17 02:02:21;;;;;;;11.10;10.10;;;21.10;84.80;;;;;;5074054;28;20206;-74
2021/07/17 02:04:48;;;;;;;13.27;10.20;;;21.10;84.90;;;;;;5074202;28;20241;-74
2021/07/17 02:07:15;;;;;;;10.73;9.77;;;21.10;84.90;;;;;;5074121;28;20213;-74
2021/07/17 02:09:42;;;;;;;10.83;9.90;;;21.10;84.90;;;;;;5065428;28;20206;-74
2021/07/17 02:12:09;;;;;;;10.83;9.83;;;21.10;84.80;;;;;;5063538;28;20198;-74
2021/07/17 02:14:41;;;;;;;10.63;9.63;;;21.10;84.70;;;;;;5073854;28;20267;-74
2021/07/17 02:17:09;;;;;;;10.80;9.70;;;21.10;84.60;;;;;;5073867;28;20210;-74
2021/07/17 02:19:36;;;;;;;10.87;9.97;;;21.10;84.60;;;;;;5059823;28;20246;-74
2021/07/17 02:22:03;;;;;;;10.03;8.93;;;21.10;84.40;;;;;;5054041;28;20207;-74
2021/07/17 02:24:31;;;;;;;10.53;9.37;;;21.10;84.50;;;;;;5054075;28;20283;-74
2021/07/17 02:26:58;;;;;;;9.40;8.50;;;21.10;84.40;;;;;;5056355;28;20210;-74
2021/07/17 02:29:25;;;;;;;9.33;8.53;;;21.10;84.30;;;;;;5054004;28;20206;-74
2021/07/17 02:31:52;;;;;;;11.90;9.40;;;21.10;84.20;;;;;;5053634;28;20213;-74
2021/07/17 02:34:20;;;;;;;13.53;9.17;;;21.10;84.00;;;;;;5059011;28;20237;-74
2021/07/17 02:36:47;;;;;;;10.73;9.60;;;21.10;83.90;;;;;;5073463;28;20244;-74
2021/07/17 02:39:14;;;;;;;10.13;9.00;;;21.10;83.80;;;;;;5073732;28;20210;-74
2021/07/17 02:41:41;;;;;;;9.13;8.43;;;21.10;83.70;;;;;;5073574;28;20201;-74
2021/07/17 02:44:08;;;;;;;10.03;9.03;;;21.00;84.20;;;;;;5070682;28;20206;-74
2021/07/17 02:46:35;;;;;;;10.63;9.37;;;21.00;83.60;;;;;;5073560;28;20214;-74
2021/07/17 02:49:03;;;;;;;10.00;9.10;;;21.00;83.60;;;;;;5073477;28;20300;-74
2021/07/17 02:51:30;;;;;;;9.87;9.07;;;21.00;83.70;;;;;;5073375;28;20567;-74
2021/07/17 02:53:57;;;;;;;11.00;9.90;;;21.00;83.90;;;;;;5073114;28;20784;-74
2021/07/17 02:56:24;;;;;;;11.13;10.03;;;21.00;84.00;;;;;;5073734;28;20502;-74
2021/07/17 02:58:50;;;;;;;10.23;9.23;;;21.00;84.10;;;;;;5073277;28;20214;-74
2021/07/17 03:01:17;;;;;;;13.67;10.67;;;21.00;84.20;;;;;;5073283;28;20209;-74
2021/07/17 03:03:45;;;;;;;10.60;9.60;;;20.90;84.20;;;;;;5073148;28;20250;-74
2021/07/17 03:06:12;;;;;;;11.37;10.10;;;21.00;84.40;;;;;;5073185;28;20217;-74
2021/07/17 03:08:39;;;;;;;10.80;9.80;;;21.00;84.40;;;;;;5073430;28;20217;-74
2021/07/17 03:11:06;;;;;;;12.33;10.23;;;20.90;84.40;;;;;;5073126;28;20214;-74
2021/07/17 03:13:33;;;;;;;13.70;11.23;;;21.00;84.40;;;;;;5070584;28;20239;-74
2021/07/17 03:16:00;;;;;;;12.77;11.50;;;20.90;84.50;;;;;;5052932;28;20272;-74
2021/07/17 03:18:27;;;;;;;12.80;11.47;;;20.90;84.50;;;;;;5059002;28;20236;-74
2021/07/17 03:20:54;;;;;;;12.57;11.30;;;20.90;84.50;;;;;;5072029;28;20205;-74
2021/07/17 03:23:21;;;;;;;13.23;12.07;;;20.90;84.60;;;;;;5072987;28;20216;-74
2021/07/17 03:25:48;;;;;;;13.03;11.83;;;20.90;84.70;;;;;;5073114;28;20274;-74
2021/07/17 03:28:15;;;;;;;13.03;11.73;;;20.90;84.70;;;;;;5072989;28;20274;-74
2021/07/17 03:30:43;;;;;;;17.00;12.87;;;20.90;84.80;;;;;;5073018;28;20210;-74
2021/07/17 03:33:10;;;;;;;13.10;11.80;;;20.90;84.80;;;;;;5072864;28;20210;-74
2021/07/17 03:35:37;;;;;;;13.70;12.37;;;20.90;84.80;;;;;;5072940;28;20234;-74
2021/07/17 03:38:05;;;;;;;14.90;13.40;;;20.90;84.90;;;;;;5072892;28;20205;-74
2021/07/17 03:40:32;;;;;;;15.13;13.83;;;20.90;84.90;;;;;;5072535;28;20554;-75
2021/07/17 03:42:58;;;;;;;15.43;14.03;;;20.90;85.00;;;;;;5072602;28;20275;-74
2021/07/17 03:45:26;;;;;;;15.87;14.37;;;20.90;85.10;;;;;;5070793;28;20304;-74
2021/07/17 03:47:52;;;;;;;16.00;14.40;;;20.90;85.20;;;;;;5072893;28;20223;-74
2021/07/17 03:50:20;;;;;;;15.07;13.70;;;20.90;85.20;;;;;;5072909;28;20240;-74
2021/07/17 03:52:47;;;;;;;16.30;14.80;;;20.90;85.20;;;;;;5072623;28;20217;-74
2021/07/17 03:55:14;;;;;;;14.43;13.10;;;20.90;85.20;;;;;;5072731;28;20240;-74
2021/07/17 03:57:41;;;;;;;15.87;14.47;;;20.90;85.30;;;;;;5072704;28;20218;-74
2021/07/17 04:00:08;;;;;;;15.47;13.97;;;20.90;85.30;;;;;;5072786;28;20253;-74
2021/07/17 04:02:42;;;;;;;15.30;13.93;;;20.90;85.30;;;;;;5072924;28;20202;-74
2021/07/17 04:05:11;;;;;;;15.17;13.80;;;20.90;85.40;;;;;;5072907;28;20209;-74
2021/07/17 04:07:38;;;;;;;13.97;12.87;;;20.90;85.40;;;;;;5072517;28;20706;-74
2021/07/17 04:10:07;;;;;;;14.33;12.83;;;20.90;85.40;;;;;;5072638;28;20644;-74
2021/07/17 04:12:34;;;;;;;14.63;12.90;;;20.90;85.40;;;;;;5072421;28;20206;-74
2021/07/17 04:15:04;;;;;;;14.67;13.27;;;21.00;85.40;;;;;;5072525;28;20604;-74
2021/07/17 04:17:31;;;;;;;14.17;12.87;;;21.00;85.40;;;;;;5075093;28;20213;-74
2021/07/17 04:19:58;;;;;;;13.80;12.17;;;21.00;85.40;;;;;;5075850;28;20225;-74
2021/07/17 04:22:25;;;;;;;18.00;13.03;;;21.00;85.40;;;;;;5076147;28;20213;-74
2021/07/17 04:24:52;;;;;;;14.37;13.07;;;21.00;85.40;;;;;;5076080;28;20221;-74
2021/07/17 04:27:19;;;;;;;13.70;12.50;;;21.10;85.40;;;;;;5076128;28;20218;-74
2021/07/17 04:29:46;;;;;;;14.30;12.77;;;21.10;85.20;;;;;;5076156;28;20220;-74
2021/07/17 04:32:13;;;;;;;16.93;12.63;;;21.10;85.20;;;;;;5075895;28;20210;-74
2021/07/17 04:34:41;;;;;;;14.23;12.83;;;21.20;85.20;;;;;;5074942;28;20294;-74
2021/07/17 04:37:08;;;;;;;14.17;12.43;;;21.20;85.10;;;;;;5057762;28;20195;-73
2021/07/17 04:39:35;;;;;;;13.70;12.50;;;21.20;84.90;;;;;;5055921;28;20225;-74
2021/07/17 04:42:02;;;;;;;19.60;12.80;;;21.20;84.80;;;;;;5055909;28;20206;-74
2021/07/17 04:44:29;;;;;;;14.00;12.70;;;21.20;84.80;;;;;;5067474;28;20293;-74
2021/07/17 04:46:56;;;;;;;13.43;12.23;;;21.20;84.80;;;;;;5075022;28;20205;-74
2021/07/17 04:49:23;;;;;;;15.27;13.77;;;21.20;84.70;;;;;;5075790;28;20271;-74
2021/07/17 04:51:50;;;;;;;14.43;13.00;;;21.10;84.60;;;;;;5075661;28;20210;-74
2021/07/17 04:54:18;;;;;;;14.47;13.17;;;21.10;84.60;;;;;;5075509;28;20259;-74
2021/07/17 04:56:45;;;;;;;14.00;12.50;;;21.10;84.60;;;;;;5075505;28;20548;-74
2021/07/17 04:59:12;;;;;;;14.03;12.70;;;21.10;84.60;;;;;;5075511;28;20236;-74
2021/07/17 05:01:39;;;;;;;13.90;12.60;;;21.20;84.60;;;;;;5075270;28;20210;-74
2021/07/17 05:04:06;;;;;;;14.17;12.73;;;21.20;84.50;;;;;;5075547;28;20206;-74
2021/07/17 05:06:33;;;;;;;14.20;12.67;;;21.20;84.40;;;;;;5075322;28;20263;-74
2021/07/17 05:09:00;;;;;;;14.73;13.13;;;21.20;84.40;;;;;;5075286;28;20636;-74
2021/07/17 05:11:27;;;;;;;14.27;12.47;;;21.20;84.20;;;;;;5075597;28;20591;-74
2021/07/17 05:13:54;;;;;;;14.90;13.23;;;21.20;84.20;;;;;;5074994;28;20213;-74
2021/07/17 05:16:21;;;;;;;13.13;11.77;;;21.30;84.20;;;;;;5074877;28;20283;-74
2021/07/17 05:18:49;;;;;;;13.37;12.07;;;21.30;84.10;;;;;;5074777;28;20671;-75
2021/07/17 05:21:16;;;;;;;12.73;11.73;;;21.30;83.90;;;;;;5075292;28;20254;-74
2021/07/17 05:23:47;;;;;;;11.87;10.57;;;21.30;83.80;;;;;;5075174;28;20205;-74
2021/07/17 05:26:14;;;;;;;12.17;11.07;;;21.40;83.70;;;;;;5073971;28;20209;-74
2021/07/17 05:28:41;;;;;;;11.00;9.97;;;21.40;83.40;;;;;;5074101;28;20282;-74
2021/07/17 05:31:08;;;;;;;11.20;10.20;;;21.40;83.20;;;;;;5073974;28;20213;-74
2021/07/17 05:33:35;;;;;;;11.80;10.60;;;21.50;83.10;;;;;;5075289;28;20256;-74
2021/07/17 05:36:02;;;;;;;12.60;11.00;;;21.50;83.00;;;;;;5074580;28;20633;-74
2021/07/17 05:38:29;;;;;;;10.80;9.80;;;21.60;82.90;;;;;;5074843;28;20208;-74
2021/07/17 05:40:56;;;;;;;10.57;9.57;;;21.60;82.80;;;;;;5075719;28;20260;-74
2021/07/17 05:43:23;;;;;;;10.77;9.73;;;21.70;82.70;;;;;;5074752;28;20198;-74
2021/07/17 05:45:53;;;;;;;12.47;10.30;;;21.70;82.60;;;;;;5073628;28;20209;-74
2021/07/17 05:48:20;;;;;;;11.73;10.53;;;21.70;82.40;;;;;;5074426;28;20209;-74
2021/07/17 05:50:48;;;;;;;11.53;9.63;;;21.80;82.20;;;;;;5074351;28;20702;-74
2021/07/17 05:53:16;;;;;;;10.93;9.83;;;21.80;82.20;;;;;;5074551;28;20259;-74
2021/07/17 05:55:43;;;;;;;14.67;10.50;;;21.80;82.10;;;;;;5074382;28;20229;-74
2021/07/17 05:58:10;;;;;;;10.43;9.50;;;21.90;82.00;;;;;;5074349;28;20244;-74
2021/07/17 06:00:38;;;;;;;11.77;10.50;;;21.90;81.70;;;;;;5074203;28;20270;-74
2021/07/17 06:03:05;;;;;;;10.67;9.67;;;22.00;81.60;;;;;;5062550;28;20271;-74
2021/07/17 06:05:32;;;;;;;12.13;10.17;;;22.00;81.30;;;;;;5062307;28;20218;-74
2021/07/17 06:07:59;;;;;;;11.10;10.00;;;22.10;81.00;;;;;;5062152;28;20218;-74
2021/07/17 06:10:26;;;;;;;12.00;10.80;;;22.10;81.00;;;;;;5062213;28;20547;-74
2021/07/17 06:12:53;;;;;;;13.07;10.73;;;22.20;81.00;;;;;;5061844;28;20228;-74
2021/07/17 06:15:20;;;;;;;11.07;10.00;;;22.20;80.80;;;;;;5061967;28;20249;-74
2021/07/17 06:17:52;;;;;;;10.27;9.37;;;22.20;80.40;;;;;;5065615;28;20217;-74
2021/07/17 06:20:21;;;;;;;11.33;10.10;;;22.20;80.20;;;;;;5071460;28;20629;-75
2021/07/17 06:22:48;;;;;;;12.87;10.00;;;22.30;80.10;;;;;;5063750;28;20225;-74
2021/07/17 06:25:16;;;;;;;11.03;10.03;;;22.40;79.80;;;;;;5064027;28;20566;-75
2021/07/17 06:27:43;;;;;;;11.30;9.83;;;22.50;79.60;;;;;;5063490;28;20222;-74
2021/07/17 06:30:10;;;;;;;10.27;9.23;;;22.50;79.30;;;;;;5065450;28;20874;-74
2021/07/17 06:32:37;;;;;;;9.60;8.70;;;22.60;78.90;;;;;;5063527;28;20279;-74
2021/07/17 06:35:05;;;;;;;9.17;8.27;;;22.70;78.70;;;;;;5062742;28;20522;-74
2021/07/17 06:37:32;;;;;;;8.60;7.80;;;22.80;78.10;;;;;;5062101;28;20284;-74
2021/07/17 06:39:59;;;;;;;9.53;7.77;;;22.90;77.80;;;;;;5063089;28;20904;-74
2021/07/17 06:42:26;;;;;;;8.53;7.57;;;23.00;77.60;;;;;;5060871;28;20214;-74
2021/07/17 06:44:53;;;;;;;8.77;7.97;;;23.00;77.20;;;;;;5063728;28;20264;-74
2021/07/17 06:47:21;;;;;;;8.37;7.43;;;23.10;77.10;;;;;;5060202;28;20232;-74
2021/07/17 06:49:48;;;;;;;7.77;6.77;;;23.10;76.50;;;;;;5064086;28;20688;-74
2021/07/17 06:52:15;;;;;;;7.67;6.97;;;23.20;76.10;;;;;;5059719;28;20205;-74
2021/07/17 06:54:42;;;;;;;8.50;7.70;;;23.20;76.00;;;;;;5061035;28;20214;-74
2021/07/17 06:57:09;;;;;;;7.87;6.87;;;23.20;76.00;;;;;;5061567;28;20890;-74
2021/07/17 06:59:36;;;;;;;8.93;8.13;;;23.20;75.60;;;;;;5060713;28;20214;-74
2021/07/17 07:02:03;;;;;;;9.40;7.60;;;23.30;75.20;;;;;;5062992;28;20213;-74
2021/07/17 07:04:31;;;;;;;11.87;8.40;;;23.30;74.90;;;;;;5064259;28;20214;-74
2021/07/17 07:06:58;;;;;;;9.53;7.63;;;23.30;74.70;;;;;;5061299;28;20221;-74
2021/07/17 07:09:25;;;;;;;9.20;8.40;;;23.40;74.70;;;;;;5062972;28;20222;-74
2021/07/17 07:11:52;;;;;;;9.93;8.20;;;23.50;74.70;;;;;;5063019;28;20213;-74
2021/07/17 07:14:20;;;;;;;9.10;8.20;;;23.60;74.10;;;;;;5059774;28;20660;-74
2021/07/17 07:16:47;;;;;;;8.57;7.70;;;23.70;73.80;;;;;;5061613;28;20237;-74
2021/07/17 07:19:15;;;;;;;12.53;8.37;;;23.80;73.70;;;;;;5066455;28;20328;-74
2021/07/17 07:21:42;;;;;;;10.00;8.17;;;24.00;73.20;;;;;;5057858;28;20600;-74
2021/07/17 07:24:09;;;;;;;9.90;8.77;;;24.00;72.50;;;;;;5062963;28;20248;-74
2021/07/17 07:26:36;;;;;;;10.30;9.30;;;24.00;72.00;;;;;;5059761;28;20222;-74
2021/07/17 07:29:04;;;;;;;9.57;8.63;;;23.90;71.10;;;;;;5062191;28;20597;-74
2021/07/17 07:31:31;;;;;;;9.77;8.87;;;23.80;71.90;;;;;;5065118;28;20217;-74
2021/07/17 07:33:58;;;;;;;12.27;8.90;;;23.80;72.50;;;;;;5060407;28;20305;-74
2021/07/17 07:36:25;;;;;;;9.77;8.97;;;23.80;72.40;;;;;;5062015;28;20233;-74
2021/07/17 07:38:52;;;;;;;13.40;9.57;;;23.80;72.30;;;;;;5061348;28;20613;-74
2021/07/17 07:41:19;;;;;;;14.53;9.53;;;23.80;72.50;;;;;;5059914;28;20562;-74
2021/07/17 07:43:46;;;;;;;8.77;8.03;;;23.80;72.20;;;;;;5061345;28;20271;-74
2021/07/17 07:46:14;;;;;;;10.10;9.10;;;23.80;72.40;;;;;;5060608;28;20217;-74
2021/07/17 07:48:42;;;;;;;9.57;8.57;;;23.80;72.50;;;;;;5060153;28;20219;-74
2021/07/17 07:51:10;;;;;;;11.70;8.77;;;23.80;72.30;;;;;;5064257;28;20296;-74
2021/07/17 07:53:38;;;;;;;10.00;9.00;;;23.90;72.60;;;;;;5064537;28;20221;-74
2021/07/17 07:56:06;;;;;;;11.70;10.00;;;23.90;72.50;;;;;;5063579;28;20234;-74
2021/07/17 07:58:32;;;;;;;10.53;9.27;;;23.90;72.50;;;;;;5063838;28;20214;-74
2021/07/17 08:01:00;;;;;;;10.23;9.33;;;23.90;72.40;;;;;;5061620;28;20203;-74
2021/07/17 08:03:27;;;;;;;12.07;9.67;;;23.90;72.10;;;;;;5067550;28;20356;-74
2021/07/17 08:05:54;;;;;;;11.27;9.37;;;23.90;71.90;;;;;;5064110;28;20242;-74
2021/07/17 08:08:21;;;;;;;13.70;9.13;;;23.90;71.60;;;;;;5067020;28;20921;-74
2021/07/17 08:10:48;;;;;;;10.37;9.40;;;23.90;71.70;;;;;;5063161;28;20272;-74
2021/07/17 08:13:15;;;;;;;11.13;9.37;;;23.90;71.90;;;;;;5064482;28;20297;-74
2021/07/17 08:15:42;;;;;;;10.43;9.47;;;24.00;72.20;;;;;;5066487;28;20316;-74
2021/07/17 08:18:09;;;;;;;11.03;10.00;;;24.00;71.80;;;;;;5063201;28;20201;-74
2021/07/17 08:20:36;;;;;;;10.53;9.43;;;24.00;71.50;;;;;;5066346;28;20274;-74
2021/07/17 08:23:03;;;;;;;10.27;9.13;;;24.00;71.80;;;;;;5064536;28;20222;-74
2021/07/17 08:25:30;;;;;;;14.53;10.10;;;24.00;71.70;;;;;;5062897;28;20210;-74
2021/07/17 08:27:57;;;;;;;9.30;8.50;;;24.10;71.80;;;;;;5065050;28;20278;-75
2021/07/17 08:30:24;;;;;;;10.70;9.73;;;24.20;71.90;;;;;;5061482;28;20288;-74
2021/07/17 08:32:55;;;;;;;13.60;9.47;;;24.30;71.70;;;;;;5065053;28;20217;-74
2021/07/17 08:35:23;;;;;;;10.70;9.70;;;24.40;71.10;;;;;;5066841;28;20663;-74
2021/07/17 08:37:50;;;;;;;9.53;8.63;;;24.40;70.70;;;;;;5065161;28;20267;-74
2021/07/17 08:40:17;;;;;;;10.67;9.77;;;24.50;70.70;;;;;;5067055;28;20283;-74
2021/07/17 08:42:46;;;;;;;10.33;8.80;;;24.50;70.80;;;;;;5061993;28;20210;-74
2021/07/17 08:45:14;;;;;;;10.87;9.77;;;24.50;70.50;;;;;;5067027;28;20210;-74
2021/07/17 08:47:44;;;;;;;10.03;9.23;;;24.60;70.40;;;;;;5067107;28;20218;-74
2021/07/17 08:50:23;;;;;;;10.73;9.30;;;24.70;70.00;;;;;;5062283;28;20225;-74
2021/07/17 08:52:56;;;;;;;11.20;8.83;;;24.60;69.70;;;;;;5062771;28;20220;-74
2021/07/17 08:55:27;;;;;;;13.37;9.07;;;24.70;69.60;;;;;;5061139;28;20226;-74
2021/07/17 08:57:55;;;;;;;13.13;9.23;;;24.60;69.70;;;;;;5066309;28;20213;-74
2021/07/17 09:00:26;;;;;;;11.23;10.10;;;24.60;69.70;;;;;;5062814;28;20215;-74
2021/07/17 09:02:57;;;;;;;11.67;9.87;;;24.60;69.70;;;;;;5063091;28;20552;-73
2021/07/17 09:05:26;;;;;;;11.93;9.97;;;24.60;69.60;;;;;;5063081;28;20218;-74
2021/07/17 09:07:55;;;;;;;9.73;8.93;;;24.60;69.70;;;;;;5064840;28;20652;-74
2021/07/17 09:10:39;;;;;;;11.13;10.03;;;24.60;69.80;;;;;;5064443;28;20214;-74
2021/07/17 09:13:25;;;;;;;10.63;8.90;;;24.80;69.70;;;;;;5062972;28;20225;-74
2021/07/17 09:16:04;;;;;;;12.03;9.73;;;24.90;69.80;;;;;;5062511;28;20324;-73
2021/07/17 09:18:40;;;;;;;12.30;11.00;;;25.00;69.90;;;;;;5062520;28;20686;-74
2021/07/17 09:21:12;;;;;;;11.30;10.30;;;25.20;69.60;;;;;;5064328;28;20221;-74
2021/07/17 09:23:54;;;;;;;13.93;12.13;;;25.30;69.70;;;;;;5063471;28;20591;-74
2021/07/17 09:26:28;;;;;;;11.97;10.80;;;25.40;69.60;;;;;;5063662;28;20652;-74
2021/07/17 09:29:02;;;;;;;13.17;11.97;;;25.60;68.80;;;;;;5063673;28;20249;-74
2021/07/17 09:31:31;;;;;;;14.63;12.37;;;25.80;68.20;;;;;;5062322;28;20210;-74
2021/07/17 09:34:06;;;;;;;14.77;13.27;;;26.00;66.90;;;;;;5064888;28;20279;-74
2021/07/17 09:36:47;;;;;;;16.50;13.20;;;26.30;66.80;;;;;;5063575;28;21791;-74
2021/07/17 09:39:16;;;;;;;14.40;12.90;;;26.70;65.10;;;;;;5062496;28;20211;-74
2021/07/17 09:41:55;;;;;;;26.27;14.07;;;27.00;64.80;;;;;;5065955;28;20213;-74
2021/07/17 09:44:24;;;;;;;15.47;13.87;;;27.30;63.40;;;;;;5066213;28;20211;-74
2021/07/17 09:46:51;;;;;;;13.37;12.00;;;27.50;61.60;;;;;;5064813;28;20214;-74
2021/07/17 09:49:20;;;;;;;20.50;15.50;;;27.60;61.50;;;;;;5065760;28;20710;-74
2021/07/17 09:51:48;;;;;;;13.50;12.30;;;27.80;61.20;;;;;;5061925;28;20290;-74
2021/07/17 09:54:17;;;;;;;14.37;12.87;;;27.90;61.00;;;;;;5064058;28;20256;-74
2021/07/17 09:56:44;;;;;;;14.23;12.73;;;28.00;60.80;;;;;;5062397;28;20261;-74
2021/07/17 09:59:13;;;;;;;21.30;12.90;;;28.20;60.70;;;;;;5064195;28;20695;-74
2021/07/17 10:01:43;;;;;;;13.63;12.00;;;28.40;60.50;;;;;;5062147;28;20210;-74
2021/07/17 10:04:11;;;;;;;13.40;12.07;;;28.50;59.40;;;;;;5065203;28;20245;-74
2021/07/17 10:06:47;;;;;;;14.23;12.30;;;28.50;58.60;;;;;;5062091;28;20214;-74
2021/07/17 10:09:14;;;;;;;12.87;11.67;;;28.60;59.10;;;;;;5066049;28;20248;-74
2021/07/17 10:11:44;;;;;;;15.30;11.83;;;28.80;57.00;;;;;;5064271;28;20226;-74
2021/07/17 10:14:35;;;;;;;13.60;11.77;;;28.80;57.30;;;;;;5063578;28;20214;-75
2021/07/17 10:17:08;;;;;;;13.00;11.60;;;28.80;57.50;;;;;;5059381;28;20240;-74
2021/07/17 10:19:36;;;;;;;12.90;11.23;;;28.50;57.90;;;;;;5063765;28;20233;-74
2021/07/17 10:22:03;;;;;;;13.87;12.43;;;28.30;57.70;;;;;;5064466;28;20214;-74
2021/07/17 10:24:31;;;;;;;16.10;12.17;;;28.20;57.70;;;;;;5062854;28;20202;-75
2021/07/17 10:26:59;;;;;;;14.80;12.20;;;28.00;58.30;;;;;;5064915;28;20291;-74
2021/07/17 10:29:26;;;;;;;12.07;10.97;;;28.10;59.10;;;;;;5062181;28;20214;-74
2021/07/17 10:31:56;;;;;;;10.27;9.27;;;28.20;58.20;;;;;;5065192;28;20646;-74
2021/07/17 10:34:24;;;;;;;9.73;8.30;;;28.40;57.70;;;;;;5059611;28;20210;-74
2021/07/17 10:37:02;;;;;;;9.37;7.83;;;28.50;57.60;;;;;;5061974;28;20718;-74
2021/07/17 10:39:35;;;;;;;10.80;8.20;;;28.60;57.00;;;;;;5063422;28;20209;-74
2021/07/17 10:42:17;;;;;;;11.67;7.90;;;28.60;55.50;;;;;;5064339;28;20287;-74
2021/07/17 10:44:48;;;;;;;8.47;7.70;;;28.60;56.20;;;;;;5065282;28;20210;-74
2021/07/17 10:47:17;;;;;;;7.70;6.97;;;28.90;56.20;;;;;;5068064;28;20225;-74
2021/07/17 10:49:48;;;;;;;6.70;6.00;;;29.10;55.40;;;;;;5061243;28;20222;-74
2021/07/17 10:52:32;;;;;;;12.87;8.67;;;29.40;55.40;;;;;;5061146;28;20619;-74
2021/07/17 10:55:25;;;;;;;7.57;6.83;;;29.60;53.60;;;;;;5062454;28;20253;-74
2021/07/17 10:57:53;;;;;;;7.93;6.20;;;29.30;53.50;;;;;;5061117;28;20233;-74
2021/07/17 11:00:50;;;;;;;6.73;5.90;;;29.10;54.40;;;;;;5062237;28;20214;-74
2021/07/17 11:03:32;;;;;;;8.20;7.40;;;29.00;55.30;;;;;;5060641;28;20255;-74
2021/07/17 11:06:24;;;;;;;6.97;5.43;;;28.90;55.30;;;;;;5065108;28;20271;-74
2021/07/17 11:08:53;;;;;;;6.27;5.47;;;28.70;55.50;;;;;;5064580;28;20279;-74
2021/07/17 11:11:31;;;;;;;10.17;6.03;;;28.70;55.70;;;;;;5061865;28;20218;-74
2021/07/17 11:14:19;;;;;;;8.33;6.47;;;28.70;54.90;;;;;;5062400;28;20893;-74
2021/07/17 11:16:51;;;;;;;5.53;4.63;;;28.50;55.30;;;;;;5060505;28;20233;-74
2021/07/17 11:19:25;;;;;;;10.57;6.37;;;28.50;56.50;;;;;;5061361;28;20316;-74
2021/07/17 11:21:53;;;;;;;7.37;5.70;;;28.50;56.10;;;;;;5063084;28;20206;-75
2021/07/17 11:24:26;;;;;;;7.83;5.23;;;28.40;56.50;;;;;;5062267;28;20213;-74
2021/07/17 11:27:38;;;;;;;6.87;6.23;;;28.40;56.70;;;;;;5066020;28;20218;-74
2021/07/17 11:30:16;;;;;;;8.63;4.93;;;28.50;56.60;;;;;;5048516;28;20616;-74
2021/07/17 11:33:05;;;;;;;5.40;5.00;;;28.50;57.60;;;;;;5068192;28;20217;-75
2021/07/17 11:35:37;;;;;;;5.97;5.27;;;28.60;57.00;;;;;;5068904;28;20224;-75
2021/07/17 11:38:06;;;;;;;6.90;5.07;;;28.50;57.10;;;;;;5067432;28;20238;-75
2021/07/17 11:40:34;;;;;;;6.27;4.90;;;28.40;56.90;;;;;;5064974;28;20294;-75
2021/07/17 11:43:04;;;;;;;6.90;5.40;;;28.30;57.00;;;;;;5068631;28;20697;-75
2021/07/17 11:45:32;;;;;;;6.53;5.63;;;28.30;56.40;;;;;;5061259;28;20210;-74
2021/07/17 11:48:13;;;;;;;6.07;4.47;;;28.30;56.40;;;;;;5065838;28;20245;-74
2021/07/17 11:50:43;;;;;;;8.10;4.23;;;28.30;57.10;;;;;;5067237;28;20231;-75
2021/07/17 11:53:14;;;;;;;12.07;4.57;;;28.40;57.00;;;;;;5065278;28;20226;-75
2021/07/17 11:55:41;;;;;;;7.40;4.70;;;28.40;56.70;;;;;;5068412;28;20275;-74
2021/07/17 11:58:15;;;;;;;11.00;5.17;;;28.30;56.50;;;;;;5068189;28;20238;-74
2021/07/17 12:00:44;;;;;;;4.90;4.47;;;28.20;57.10;;;;;;5065619;28;20210;-75
2021/07/17 12:03:11;;;;;;;5.53;4.30;;;28.10;57.60;;;;;;5065990;28;20213;-74
2021/07/17 12:05:38;;;;;;;5.23;4.73;;;28.10;57.80;;;;;;5069731;28;20205;-74
2021/07/17 12:08:05;;;;;;;6.97;5.33;;;28.20;58.50;;;;;;5063942;28;20245;-74
2021/07/17 12:10:34;;;;;;;5.90;4.40;;;28.30;57.00;;;;;;5065784;28;20304;-74
2021/07/17 12:13:03;;;;;;;5.50;5.00;;;28.40;56.80;;;;;;5065065;28;20217;-74
2021/07/17 12:15:35;;;;;;;6.77;5.70;;;28.60;56.40;;;;;;5066399;28;20226;-74
2021/07/17 12:18:05;;;;;;;4.67;4.27;;;28.70;55.60;;;;;;5066569;28;20273;-74
2021/07/17 12:20:37;;;;;;;6.53;5.80;;;28.70;56.20;;;;;;5067372;28;20629;-74
2021/07/17 12:23:07;;;;;;;8.43;5.50;;;28.80;56.20;;;;;;5064089;28;20687;-74
2021/07/17 12:25:39;;;;;;;6.77;5.53;;;28.80;56.20;;;;;;5065937;28;20627;-74
2021/07/17 12:28:24;;;;;;;8.67;4.70;;;28.80;56.20;;;;;;5065733;28;20240;-74
2021/07/17 12:30:57;;;;;;;7.83;4.80;;;28.80;56.80;;;;;;5063365;28;20271;-74
2021/07/17 12:33:36;;;;;;;8.00;4.93;;;28.70;56.80;;;;;;5065029;28;20226;-74
2021/07/17 12:36:08;;;;;;;5.90;5.30;;;28.60;56.70;;;;;;5064535;28;20209;-75
2021/07/17 12:38:40;;;;;;;7.80;5.40;;;28.40;57.00;;;;;;5062007;28;20965;-75
2021/07/17 12:41:35;;;;;;;5.67;5.07;;;28.20;57.20;;;;;;5065153;28;20640;-74
2021/07/17 12:44:05;;;;;;;6.47;5.47;;;28.00;58.20;;;;;;5065763;28;20233;-74